This is the latest recevied weather packets stored in our database for station/object KC3QLX. If no packets are shown the sender has not sent any weather packets the latest 10 day(s).
| Time | Temp. | Humidity | Pressure | Rain* | Wind** | Luminosity | Snow |
|---|---|---|---|---|---|---|---|
| 1777919878 | 21.67° C | 40% | 1009.9 hPa | 0 mm | - | 637 W/m² | - |
| 1777919574 | 21.67° C | 40% | 1010 hPa | 0 mm | - | 651 W/m² | - |
| 1777919273 | 22.22° C | 40% | 1010.2 hPa | 0 mm | - | 649 W/m² | - |
| 1777918970 | 21.67° C | 42% | 1010.2 hPa | 0 mm | - | 640 W/m² | - |
| 1777918667 | 22.22° C | 39% | 1010.2 hPa | 0 mm | - | 648 W/m² | - |
| 1777918364 | 21.67° C | 41% | 1010.2 hPa | 0 mm | - | 655 W/m² | - |
| 1777918064 | 21.67° C | 39% | 1010.3 hPa | 0 mm | - | 652 W/m² | - |
| 1777917762 | 21.11° C | 41% | 1010.3 hPa | 0 mm | - | 658 W/m² | - |
| 1777917459 | 20.56° C | 42% | 1010.2 hPa | 0 mm | - | 659 W/m² | - |
| 1777917155 | 20.56° C | 42% | 1010.4 hPa | 0 mm | - | 670 W/m² | - |
| 1777916854 | 21.11° C | 40% | 1010.3 hPa | 0 mm | - | 670 W/m² | - |
| 1777916551 | 20.56° C | 43% | 1010.6 hPa | 0 mm | - | 675 W/m² | - |
| 1777916247 | 20.56° C | 41% | 1010.6 hPa | 0 mm | - | 679 W/m² | - |
| 1777915944 | 21.11° C | 40% | 1010.7 hPa | 0 mm | - | 678 W/m² | - |
| 1777915641 | 20.56° C | 43% | 1010.8 hPa | 0 mm | - | 683 W/m² | - |
| 1777915337 | 20.56° C | 42% | 1010.9 hPa | 0 mm | - | 685 W/m² | - |
| 1777915034 | 21.11° C | 39% | 1010.9 hPa | 0 mm | - | 680 W/m² | - |
| 1777914731 | 20.56° C | 41% | 1011 hPa | 0 mm | - | 674 W/m² | - |
| 1777914428 | 20.56° C | 43% | 1011.1 hPa | 0 mm | - | 672 W/m² | - |
| 1777914126 | 20.56° C | 43% | 1011.1 hPa | 0 mm | - | 687 W/m² | - |
| 1777913821 | 20.56° C | 40% | 1011.2 hPa | 0 mm | - | 698 W/m² | - |
| 1777913518 | 20.56° C | 42% | 1011.5 hPa | 0 mm | - | 698 W/m² | - |
| 1777913215 | 20.56° C | 41% | 1011.5 hPa | 0 mm | - | 707 W/m² | - |
| 1777912911 | 19.44° C | 45% | 1011.6 hPa | 0 mm | - | 698 W/m² | - |
| 1777912607 | 19.44° C | 42% | 1011.8 hPa | 0 mm | - | 702 W/m² | - |
* Rain latest hour (hover to see other rain measurements)
** Current wind speed in m/s (hover to see current wind gust speed)